CheckWX is a tool to help pilots better visualize weather data.  It is not intended as a substitute for an official pre-flight weather briefing.

05:40:06 UTC

KMJQ METAR
Jackson Municipal Airport
Jackson, Minnesota, USA
Current

25 mins ago

KMJQ 250515Z AUTO 02011KT 10SM OVC022 02/00 A3027 RMK AO2
Observed
Mar-25 @ 05:15 UTC
Wind
  • 020° at 11 KTS
Visibility
10 SM
Flight Rules
MVFR
Cloud Levels
  • Overcast at 2,200' AGL
Temperature
C / 36°F
Dewpoint
C / 32°F
Humidity
87%
Altimeter
30.27" Hg
Pressure
1025.02 hPa
Previous

45 mins ago

KMJQ 250455Z AUTO 02009KT 10SM OVC022 02/00 A3026 RMK AO2
Observed
Mar-25 @ 04:55 UTC
Wind
  • 020° at 9 KTS
Visibility
10 SM
Flight Rules
MVFR
Cloud Levels
  • Overcast at 2,200' AGL
Temperature
C / 36°F
Dewpoint
C / 32°F
Humidity
87%
Altimeter
30.26" Hg
Pressure
1024.72 hPa
Previous

1 hour ago

KMJQ 250435Z AUTO 03011G15KT 10SM OVC022 02/00 A3025 RMK AO2
Observed
Mar-25 @ 04:35 UTC
Wind
  • 030° at 11 KTS
  • Gusting to 15 KTS
Visibility
10 SM
Flight Rules
MVFR
Cloud Levels
  • Overcast at 2,200' AGL
Temperature
C / 36°F
Dewpoint
C / 32°F
Humidity
87%
Altimeter
30.25" Hg
Pressure
1024.42 hPa